createdAt,value
2017-08-30T00:01:50.742Z,95.60
2017-08-30T00:04:18.282Z,95.40
2017-08-30T00:06:45.802Z,95.80
2017-08-30T00:09:13.344Z,96.20
2017-08-30T00:11:40.863Z,96.70
2017-08-30T00:14:08.403Z,97.00
2017-08-30T00:16:35.922Z,97.30
2017-08-30T00:19:03.475Z,97.10
2017-08-30T00:21:31.002Z,96.90
2017-08-30T00:23:58.519Z,96.00
2017-08-30T00:26:27.990Z,96.60
2017-08-30T00:28:56.279Z,97.00
2017-08-30T00:31:23.828Z,97.00
2017-08-30T00:33:51.359Z,97.00
2017-08-30T00:36:18.902Z,97.30
2017-08-30T00:38:46.435Z,97.50
2017-08-30T00:41:13.983Z,97.70
2017-08-30T00:43:41.511Z,97.40
2017-08-30T00:46:09.813Z,97.30
2017-08-30T00:48:37.339Z,97.30
2017-08-30T00:51:04.891Z,96.90
2017-08-30T00:53:32.421Z,97.20
2017-08-30T00:55:59.953Z,97.70
2017-08-30T00:58:27.505Z,98.10
2017-08-30T01:00:55.034Z,98.40
2017-08-30T01:03:22.579Z,98.40
2017-08-30T01:05:50.098Z,98.20
2017-08-30T01:08:17.639Z,98.00
2017-08-30T01:10:45.159Z,98.00
2017-08-30T01:13:12.703Z,98.10
2017-08-30T01:15:40.229Z,98.00
2017-08-30T01:18:07.774Z,97.90
2017-08-30T01:20:35.294Z,97.70
2017-08-30T01:23:02.831Z,96.70
2017-08-30T01:25:30.385Z,96.80
2017-08-30T01:27:57.906Z,97.10
2017-08-30T01:30:25.446Z,97.40
2017-08-30T01:32:52.974Z,97.60
2017-08-30T01:35:20.514Z,97.90
2017-08-30T01:37:48.042Z,96.90
2017-08-30T01:40:15.599Z,97.00
2017-08-30T01:42:43.132Z,97.30
2017-08-30T01:45:10.652Z,97.50
2017-08-30T01:47:38.190Z,97.70
2017-08-30T01:50:05.707Z,97.90
2017-08-30T01:52:33.246Z,97.90
2017-08-30T01:55:00.771Z,97.70
2017-08-30T01:57:28.312Z,97.70
2017-08-30T01:59:55.831Z,97.70
2017-08-30T02:02:23.371Z,97.90
2017-08-30T02:04:50.894Z,98.20
2017-08-30T02:07:18.445Z,98.30
2017-08-30T02:09:45.970Z,98.70
2017-08-30T02:12:13.491Z,98.40
2017-08-30T02:14:41.040Z,98.10
2017-08-30T02:17:08.562Z,98.30
2017-08-30T02:19:36.120Z,98.20
2017-08-30T02:22:03.654Z,98.20
2017-08-30T02:24:31.198Z,98.20
2017-08-30T02:26:58.723Z,98.40
2017-08-30T02:29:26.262Z,98.70
2017-08-30T02:31:53.787Z,98.60
2017-08-30T02:34:21.314Z,96.40
2017-08-30T02:36:48.870Z,97.60
2017-08-30T02:39:16.398Z,98.60
2017-08-30T02:41:43.947Z,98.60
2017-08-30T02:44:11.473Z,99.00
2017-08-30T02:46:39.024Z,99.20
2017-08-30T02:49:06.553Z,99.40
2017-08-30T02:51:34.094Z,99.30
2017-08-30T02:54:01.624Z,99.60
2017-08-30T02:56:29.155Z,99.60
2017-08-30T02:58:56.695Z,99.50
2017-08-30T03:01:24.216Z,98.10
2017-08-30T03:03:51.757Z,97.10
2017-08-30T03:06:21.099Z,96.70
2017-08-30T03:08:48.643Z,97.10
2017-08-30T03:11:16.166Z,97.60
2017-08-30T03:13:43.718Z,98.00
2017-08-30T03:16:11.243Z,99.00
2017-08-30T03:18:38.772Z,99.10
2017-08-30T03:21:06.315Z,98.90
2017-08-30T03:23:33.833Z,99.10
2017-08-30T03:26:01.375Z,99.10
2017-08-30T03:28:28.917Z,99.00
2017-08-30T03:30:56.452Z,98.90
2017-08-30T03:33:23.970Z,99.20
2017-08-30T03:35:51.509Z,99.20
2017-08-30T03:38:19.029Z,99.00
2017-08-30T03:40:46.569Z,99.20
2017-08-30T03:43:14.106Z,99.20
2017-08-30T03:45:41.631Z,99.00
2017-08-30T03:48:09.169Z,99.60
2017-08-30T03:50:36.690Z,99.90
2017-08-30T03:53:04.234Z,99.90
2017-08-30T03:55:31.757Z,99.90
2017-08-30T03:57:59.302Z,99.90
2017-08-30T04:00:26.829Z,99.90
2017-08-30T04:02:54.366Z,99.90
2017-08-30T04:05:21.887Z,99.90
2017-08-30T04:07:49.439Z,99.90
2017-08-30T04:10:16.971Z,99.80
2017-08-30T04:12:44.494Z,98.60
2017-08-30T04:15:12.034Z,98.20
2017-08-30T04:17:39.564Z,97.40
2017-08-30T04:20:07.103Z,97.50
2017-08-30T04:22:34.627Z,97.80
2017-08-30T04:25:02.175Z,98.10
2017-08-30T04:27:29.708Z,98.40
2017-08-30T04:29:57.259Z,98.60
2017-08-30T04:32:24.795Z,98.50
2017-08-30T04:34:52.311Z,97.70
2017-08-30T04:37:19.845Z,97.00
2017-08-30T04:39:47.379Z,97.40
2017-08-30T04:42:14.930Z,97.70
2017-08-30T04:44:43.219Z,97.60
2017-08-30T04:47:10.759Z,97.60
2017-08-30T04:49:38.335Z,97.60
2017-08-30T04:52:05.894Z,98.00
2017-08-30T04:54:33.428Z,97.90
2017-08-30T04:57:00.959Z,97.50
2017-08-30T04:59:28.498Z,97.20
2017-08-30T05:01:56.075Z,97.60
2017-08-30T05:04:23.638Z,97.50
2017-08-30T05:06:51.184Z,97.80
2017-08-30T05:09:18.727Z,96.40
2017-08-30T05:11:46.253Z,94.80
2017-08-30T05:14:13.803Z,94.00
2017-08-30T05:16:41.343Z,93.70
2017-08-30T05:19:08.902Z,93.20
2017-08-30T05:21:36.422Z,92.30
2017-08-30T05:24:03.950Z,91.40
2017-08-30T05:26:31.509Z,90.20
2017-08-30T05:28:59.028Z,88.60
2017-08-30T05:31:26.562Z,85.50
2017-08-30T05:33:54.078Z,84.00
2017-08-30T05:36:21.618Z,83.00
2017-08-30T05:38:49.155Z,81.60
2017-08-30T05:41:16.706Z,80.80
2017-08-30T05:43:44.234Z,81.30
2017-08-30T05:46:11.779Z,79.60
2017-08-30T05:48:39.297Z,79.80
2017-08-30T05:51:06.848Z,78.60
2017-08-30T05:53:34.374Z,77.70
2017-08-30T05:56:01.903Z,75.80
2017-08-30T05:58:29.455Z,74.20
2017-08-30T06:00:56.989Z,73.70
2017-08-30T06:03:24.530Z,72.10
2017-08-30T06:05:52.061Z,70.30
2017-08-30T06:08:19.603Z,69.90
2017-08-30T06:10:47.127Z,69.50
2017-08-30T06:13:14.678Z,69.60
2017-08-30T06:15:42.213Z,71.40
2017-08-30T06:18:09.758Z,70.90
2017-08-30T06:20:37.282Z,70.40
2017-08-30T06:23:04.822Z,69.20
2017-08-30T06:25:32.375Z,70.30
2017-08-30T06:27:59.900Z,68.10
2017-08-30T06:30:27.454Z,66.00
2017-08-30T06:32:54.974Z,66.00
2017-08-30T06:35:22.534Z,64.60
2017-08-30T06:37:50.055Z,63.10
2017-08-30T06:40:17.608Z,64.10
2017-08-30T06:42:45.135Z,64.90
2017-08-30T06:45:12.682Z,65.20
2017-08-30T06:47:40.215Z,64.10
2017-08-30T06:50:07.743Z,61.30
2017-08-30T06:52:35.290Z,63.50
2017-08-30T06:55:02.815Z,64.20
2017-08-30T06:57:30.359Z,63.90
2017-08-30T06:59:57.888Z,63.70
2017-08-30T07:02:25.438Z,63.00
2017-08-30T07:04:52.963Z,64.10
2017-08-30T07:07:20.505Z,62.90
2017-08-30T07:09:48.035Z,62.80
2017-08-30T07:12:15.578Z,62.30
2017-08-30T07:14:43.111Z,62.80
2017-08-30T07:17:10.659Z,63.40
2017-08-30T07:19:38.184Z,61.40
2017-08-30T07:22:05.706Z,62.10
2017-08-30T07:24:33.251Z,65.40
2017-08-30T07:27:00.771Z,62.50
2017-08-30T07:29:28.312Z,63.20
2017-08-30T07:31:55.836Z,61.50
2017-08-30T07:34:23.377Z,59.50
2017-08-30T07:36:50.899Z,60.30
2017-08-30T07:39:18.443Z,61.20
2017-08-30T07:41:45.963Z,59.80
2017-08-30T07:44:13.503Z,62.40
2017-08-30T07:46:41.017Z,63.10
2017-08-30T07:49:08.563Z,64.40
2017-08-30T07:51:36.089Z,63.60
2017-08-30T07:54:03.650Z,63.50
2017-08-30T07:56:31.171Z,62.10
2017-08-30T07:58:58.693Z,61.70
2017-08-30T08:01:26.235Z,60.70
2017-08-30T08:03:53.759Z,60.70
2017-08-30T08:06:21.304Z,59.20
2017-08-30T08:08:48.821Z,59.80
2017-08-30T08:11:16.363Z,59.70
2017-08-30T08:13:43.895Z,59.30
2017-08-30T08:16:11.441Z,59.60
2017-08-30T08:18:38.964Z,57.70
2017-08-30T08:21:06.507Z,59.30
2017-08-30T08:23:34.023Z,59.60
2017-08-30T08:26:01.570Z,58.30
2017-08-30T08:28:29.092Z,59.30
2017-08-30T08:30:56.638Z,61.10
2017-08-30T08:33:24.160Z,59.80
2017-08-30T08:35:51.683Z,60.20
2017-08-30T08:38:19.226Z,59.90
2017-08-30T08:40:46.753Z,58.10
2017-08-30T08:43:14.291Z,56.40
2017-08-30T08:45:41.819Z,55.70
2017-08-30T08:48:09.362Z,55.10
2017-08-30T08:50:36.896Z,57.10
2017-08-30T08:53:04.430Z,55.20
2017-08-30T08:55:31.941Z,57.10
2017-08-30T08:57:59.477Z,55.50
2017-08-30T09:00:26.995Z,55.20
2017-08-30T09:02:54.509Z,56.10
2017-08-30T09:05:22.045Z,56.80
2017-08-30T09:07:49.566Z,57.00
2017-08-30T09:10:17.111Z,56.40
2017-08-30T09:12:44.638Z,57.30
2017-08-30T09:15:12.173Z,58.10
2017-08-30T09:17:39.691Z,58.30
2017-08-30T09:20:07.235Z,61.20
2017-08-30T09:22:34.758Z,57.50
2017-08-30T09:25:02.319Z,57.90
2017-08-30T09:27:29.837Z,56.40
2017-08-30T09:29:57.374Z,54.80
2017-08-30T09:32:24.900Z,55.00
2017-08-30T09:34:52.431Z,53.20
2017-08-30T09:37:19.978Z,53.40
2017-08-30T09:39:47.503Z,54.80
2017-08-30T09:42:15.075Z,54.20
2017-08-30T09:44:42.599Z,54.60
2017-08-30T09:47:10.147Z,55.10
2017-08-30T09:49:37.674Z,54.70
2017-08-30T09:52:05.218Z,56.10
2017-08-30T09:54:32.734Z,55.00
2017-08-30T09:57:00.271Z,54.60
2017-08-30T09:59:27.790Z,53.70
2017-08-30T10:01:55.326Z,54.70
2017-08-30T10:04:22.842Z,54.60
2017-08-30T10:06:50.379Z,55.00
2017-08-30T10:09:17.894Z,54.80
2017-08-30T10:11:45.438Z,52.70
2017-08-30T10:14:12.959Z,52.40
2017-08-30T10:16:40.482Z,49.70
2017-08-30T10:19:08.014Z,49.20
2017-08-30T10:21:35.537Z,48.70
2017-08-30T10:24:03.102Z,48.70
2017-08-30T10:26:30.621Z,46.80
2017-08-30T10:28:58.166Z,47.90
2017-08-30T10:31:26.530Z,46.10
2017-08-30T10:33:54.066Z,45.30
2017-08-30T10:36:21.591Z,44.20
2017-08-30T10:38:49.130Z,45.50
2017-08-30T10:41:16.661Z,46.40
2017-08-30T10:43:44.210Z,46.90
2017-08-30T10:46:11.733Z,44.80
2017-08-30T10:48:39.267Z,45.70
2017-08-30T10:51:06.803Z,47.20
2017-08-30T10:53:34.322Z,48.10
2017-08-30T10:56:01.857Z,47.20
2017-08-30T10:58:29.377Z,46.80
2017-08-30T11:00:56.920Z,46.00
2017-08-30T11:03:24.449Z,45.60
2017-08-30T11:05:51.998Z,45.80
2017-08-30T11:08:19.523Z,46.70
2017-08-30T11:10:47.063Z,46.50
2017-08-30T11:13:14.587Z,44.60
2017-08-30T11:15:42.122Z,45.10
2017-08-30T11:18:09.638Z,44.00
2017-08-30T11:20:37.188Z,43.30
2017-08-30T11:23:04.713Z,42.80
2017-08-30T11:25:32.258Z,42.80
2017-08-30T11:27:59.771Z,43.20
2017-08-30T11:30:27.334Z,45.30
2017-08-30T11:32:54.874Z,46.70
2017-08-30T11:35:22.398Z,46.90
2017-08-30T11:37:49.938Z,47.50
2017-08-30T11:40:17.459Z,46.70
2017-08-30T11:42:45.002Z,46.50
2017-08-30T11:45:12.523Z,45.50
2017-08-30T11:47:40.066Z,44.20
2017-08-30T11:50:07.583Z,45.30
2017-08-30T11:52:35.134Z,45.50
2017-08-30T11:55:02.668Z,43.80
2017-08-30T11:57:30.222Z,42.90
2017-08-30T11:59:57.742Z,43.90
2017-08-30T12:02:25.267Z,42.40
2017-08-30T12:04:52.810Z,42.80
2017-08-30T12:07:20.331Z,39.40
2017-08-30T12:09:47.872Z,41.60
2017-08-30T12:12:15.394Z,40.90
2017-08-30T12:14:42.932Z,43.70
2017-08-30T12:17:10.454Z,46.00
2017-08-30T12:19:37.988Z,44.40
2017-08-30T12:22:05.505Z,46.50
2017-08-30T12:24:33.043Z,47.00
2017-08-30T12:27:00.560Z,45.10
2017-08-30T12:29:28.111Z,46.50
2017-08-30T12:31:55.633Z,45.60
2017-08-30T12:34:23.154Z,47.20
2017-08-30T12:36:56.466Z,45.80
2017-08-30T12:39:29.810Z,46.40
2017-08-30T12:41:57.346Z,46.60
2017-08-30T12:44:24.863Z,46.30
2017-08-30T12:46:52.417Z,47.20
2017-08-30T12:49:19.942Z,47.80
2017-08-30T12:51:47.479Z,47.60
2017-08-30T12:54:15.007Z,47.50
2017-08-30T12:56:42.547Z,48.20
2017-08-30T12:59:10.075Z,48.80
2017-08-30T13:01:37.627Z,48.70
2017-08-30T13:04:05.151Z,49.00
2017-08-30T13:06:32.700Z,49.60
2017-08-30T13:09:00.222Z,48.30
2017-08-30T13:11:27.743Z,49.60
2017-08-30T13:13:55.278Z,47.90
2017-08-30T13:16:22.802Z,47.70
2017-08-30T13:18:50.347Z,48.00
2017-08-30T13:21:17.876Z,46.90
2017-08-30T13:23:45.423Z,47.60
2017-08-30T13:26:12.948Z,49.10
2017-08-30T13:28:40.486Z,50.90
2017-08-30T13:31:08.011Z,51.00
2017-08-30T13:33:35.551Z,49.30
2017-08-30T13:36:03.078Z,50.70
2017-08-30T13:38:30.624Z,51.10
2017-08-30T13:40:58.143Z,48.70
2017-08-30T13:43:25.693Z,50.80
2017-08-30T13:45:53.222Z,50.40
2017-08-30T13:48:20.746Z,49.60
2017-08-30T13:50:48.296Z,49.70
2017-08-30T13:53:15.823Z,50.90
2017-08-30T13:55:43.371Z,49.20
2017-08-30T13:58:10.892Z,50.40
2017-08-30T14:00:38.443Z,50.60
2017-08-30T14:03:05.964Z,51.70
2017-08-30T14:05:33.511Z,51.50
2017-08-30T14:08:01.034Z,51.90
2017-08-30T14:10:28.581Z,52.00
2017-08-30T14:12:56.104Z,52.60
2017-08-30T14:15:23.647Z,52.40
2017-08-30T14:17:51.163Z,53.00
2017-08-30T14:20:18.703Z,54.00
2017-08-30T14:22:46.222Z,52.90
2017-08-30T14:25:13.746Z,52.20
2017-08-30T14:27:41.312Z,52.90
2017-08-30T14:30:08.845Z,52.80
2017-08-30T14:32:36.383Z,51.10
2017-08-30T14:35:03.904Z,52.00
2017-08-30T14:37:31.456Z,52.80
2017-08-30T14:39:58.979Z,52.50
2017-08-30T14:42:26.522Z,53.20
2017-08-30T14:44:54.048Z,54.00
2017-08-30T14:47:21.593Z,54.10
2017-08-30T14:49:49.193Z,54.60
2017-08-30T14:52:16.734Z,55.00
2017-08-30T14:54:44.257Z,54.00
2017-08-30T14:57:11.817Z,53.30
2017-08-30T14:59:39.347Z,54.30
2017-08-30T15:02:06.875Z,53.20
2017-08-30T15:04:34.423Z,54.70
2017-08-30T15:07:01.948Z,54.10
2017-08-30T15:09:29.488Z,54.90
2017-08-30T15:11:57.007Z,54.70
2017-08-30T15:14:24.551Z,54.60
2017-08-30T15:16:52.070Z,55.10
2017-08-30T15:19:19.618Z,56.00
2017-08-30T15:21:47.139Z,56.20
2017-08-30T15:24:14.686Z,56.40
2017-08-30T15:26:42.207Z,57.00
2017-08-30T15:29:09.749Z,56.50
2017-08-30T15:31:37.263Z,57.00
2017-08-30T15:34:04.803Z,57.40
2017-08-30T15:36:32.333Z,56.80
2017-08-30T15:38:59.899Z,57.20
2017-08-30T15:41:27.418Z,56.50
2017-08-30T15:43:54.942Z,57.50
2017-08-30T15:46:22.481Z,58.20
2017-08-30T15:48:50.075Z,59.40
2017-08-30T15:51:17.614Z,59.20
2017-08-30T15:53:45.138Z,59.20
2017-08-30T15:56:12.682Z,59.60
2017-08-30T15:58:40.198Z,59.70
2017-08-30T16:01:07.741Z,59.80
2017-08-30T16:03:35.265Z,59.50
2017-08-30T16:06:02.819Z,62.10
2017-08-30T16:08:30.343Z,60.20
2017-08-30T16:10:57.884Z,62.10
2017-08-30T16:13:25.402Z,60.70
2017-08-30T16:15:52.945Z,60.20
2017-08-30T16:18:20.470Z,61.10
2017-08-30T16:20:48.003Z,59.50
2017-08-30T16:23:15.543Z,59.20
2017-08-30T16:25:44.555Z,59.30
2017-08-30T16:28:14.053Z,60.10
2017-08-30T16:30:42.954Z,60.10
2017-08-30T16:33:12.998Z,61.40
2017-08-30T16:35:41.671Z,61.30
2017-08-30T16:38:11.494Z,62.00
2017-08-30T16:40:39.281Z,62.10
2017-08-30T16:43:08.477Z,61.80
2017-08-30T16:45:36.596Z,61.50
2017-08-30T16:48:06.162Z,61.80
2017-08-30T16:50:35.168Z,62.20
2017-08-30T16:53:03.748Z,62.50
2017-08-30T16:55:31.858Z,63.30
2017-08-30T16:58:00.970Z,64.00
2017-08-30T17:00:28.654Z,65.40
2017-08-30T17:02:56.183Z,66.60
2017-08-30T17:05:23.728Z,69.10
2017-08-30T17:07:51.254Z,70.50
2017-08-30T17:10:18.795Z,71.10
2017-08-30T17:12:46.341Z,73.70
2017-08-30T17:15:13.878Z,74.90
2017-08-30T17:17:41.398Z,75.90
2017-08-30T17:20:09.021Z,78.60
2017-08-30T17:22:36.555Z,80.30
2017-08-30T17:25:04.082Z,81.20
2017-08-30T17:27:31.629Z,80.80
2017-08-30T17:29:59.924Z,81.30
2017-08-30T17:32:27.481Z,81.20
2017-08-30T17:34:55.008Z,81.50
2017-08-30T17:37:22.570Z,82.50
2017-08-30T17:39:50.095Z,84.60
2017-08-30T17:42:17.635Z,85.90
2017-08-30T17:44:45.164Z,87.50
2017-08-30T17:47:12.713Z,87.80
2017-08-30T17:49:40.242Z,88.70
2017-08-30T17:52:07.782Z,89.20
2017-08-30T17:54:35.302Z,89.90
2017-08-30T17:57:02.855Z,90.10
2017-08-30T17:59:30.386Z,90.10
2017-08-30T18:01:57.903Z,90.20
2017-08-30T18:04:25.447Z,90.30
2017-08-30T18:06:52.987Z,90.70
2017-08-30T18:09:20.519Z,90.90
2017-08-30T18:11:48.037Z,91.00
2017-08-30T18:14:15.581Z,91.10
2017-08-30T18:16:43.104Z,91.60
2017-08-30T18:19:10.646Z,91.90
2017-08-30T18:21:38.170Z,92.30
2017-08-30T18:24:05.723Z,92.30
2017-08-30T18:26:33.247Z,91.80
2017-08-30T18:29:00.798Z,91.30
2017-08-30T18:31:28.323Z,91.30
2017-08-30T18:33:55.851Z,92.20
2017-08-30T18:36:23.394Z,92.50
2017-08-30T18:38:50.921Z,92.60
2017-08-30T18:41:18.467Z,92.80
2017-08-30T18:43:46.004Z,92.80
2017-08-30T18:46:13.554Z,92.90
2017-08-30T18:48:41.085Z,92.90
2017-08-30T18:51:08.634Z,92.90
2017-08-30T18:53:36.161Z,92.80
2017-08-30T18:56:03.707Z,92.50
2017-08-30T18:58:31.245Z,92.50
2017-08-30T19:00:58.787Z,92.70
2017-08-30T19:03:26.322Z,92.90
2017-08-30T19:05:53.879Z,92.60
2017-08-30T19:08:21.411Z,92.70
2017-08-30T19:10:48.943Z,92.70
2017-08-30T19:13:16.490Z,93.00
2017-08-30T19:15:44.039Z,93.20
2017-08-30T19:18:11.554Z,93.30
2017-08-30T19:20:39.107Z,93.10
2017-08-30T19:23:06.635Z,92.80
2017-08-30T19:25:34.163Z,92.40
2017-08-30T19:28:01.711Z,92.60
2017-08-30T19:30:29.230Z,92.70
2017-08-30T19:32:56.779Z,93.20
2017-08-30T19:35:24.304Z,93.70
2017-08-30T19:37:51.851Z,93.80
2017-08-30T19:40:19.372Z,93.80
2017-08-30T19:42:46.933Z,93.50
2017-08-30T19:45:14.459Z,93.70
2017-08-30T19:47:42.012Z,93.80
2017-08-30T19:50:09.538Z,93.60
2017-08-30T19:52:37.100Z,93.50
2017-08-30T19:55:04.622Z,93.40
2017-08-30T19:57:32.150Z,93.50
2017-08-30T19:59:59.698Z,93.40
2017-08-30T20:02:27.227Z,93.40
2017-08-30T20:04:54.770Z,93.60
2017-08-30T20:07:22.290Z,93.80
2017-08-30T20:09:49.834Z,94.20
2017-08-30T20:12:17.361Z,94.30
2017-08-30T20:14:44.912Z,94.40
2017-08-30T20:17:12.443Z,94.60
2017-08-30T20:19:40.002Z,94.40
2017-08-30T20:22:07.530Z,94.50
2017-08-30T20:24:35.055Z,94.50
2017-08-30T20:27:02.607Z,94.70
2017-08-30T20:29:30.130Z,94.80
2017-08-30T20:31:57.686Z,95.00
2017-08-30T20:34:25.209Z,95.00
2017-08-30T20:36:52.754Z,94.70
2017-08-30T20:39:20.285Z,94.80
2017-08-30T20:41:47.836Z,95.00
2017-08-30T20:44:15.365Z,95.10
2017-08-30T20:46:42.921Z,95.20
2017-08-30T20:49:10.447Z,95.30
2017-08-30T20:51:37.994Z,95.80
2017-08-30T20:54:05.514Z,96.10
2017-08-30T20:56:33.058Z,96.20
2017-08-30T20:59:00.582Z,96.20
2017-08-30T21:01:28.131Z,96.00
2017-08-30T21:03:55.659Z,96.20
2017-08-30T21:06:23.204Z,96.30
2017-08-30T21:08:51.050Z,96.20
2017-08-30T21:11:18.630Z,96.90
2017-08-30T21:13:46.152Z,96.60
2017-08-30T21:16:13.678Z,96.50
2017-08-30T21:18:41.222Z,96.50
2017-08-30T21:21:08.747Z,96.80
2017-08-30T21:23:36.303Z,97.60
2017-08-30T21:26:03.829Z,96.80
2017-08-30T21:28:31.375Z,97.20
2017-08-30T21:30:58.908Z,97.80
2017-08-30T21:33:26.467Z,98.10
2017-08-30T21:35:53.986Z,98.30
2017-08-30T21:38:21.516Z,98.40
2017-08-30T21:40:49.060Z,98.80
2017-08-30T21:43:16.578Z,98.60
2017-08-30T21:45:44.128Z,99.10
2017-08-30T21:48:11.657Z,98.80
2017-08-30T21:50:39.206Z,97.80
2017-08-30T21:53:06.730Z,97.60
2017-08-30T21:55:34.267Z,97.40
2017-08-30T21:58:01.786Z,97.50
2017-08-30T22:00:29.335Z,97.90
2017-08-30T22:02:56.854Z,97.40
2017-08-30T22:05:24.374Z,97.00
2017-08-30T22:07:51.923Z,96.70
2017-08-30T22:10:19.447Z,96.80
2017-08-30T22:12:46.991Z,96.80
2017-08-30T22:15:14.517Z,96.10
2017-08-30T22:17:42.065Z,96.20
2017-08-30T22:20:09.578Z,95.20
2017-08-30T22:22:37.122Z,95.60
2017-08-30T22:25:04.651Z,95.10
2017-08-30T22:27:32.199Z,94.80
2017-08-30T22:29:59.722Z,95.20
2017-08-30T22:32:27.278Z,94.50
2017-08-30T22:34:54.798Z,95.20
2017-08-30T22:37:22.318Z,95.10
2017-08-30T22:39:49.859Z,95.10
2017-08-30T22:42:17.378Z,94.20
2017-08-30T22:44:44.919Z,94.80
2017-08-30T22:47:12.439Z,94.90
2017-08-30T22:49:39.983Z,95.50
2017-08-30T22:52:07.502Z,94.90
2017-08-30T22:54:35.042Z,94.70
2017-08-30T22:57:02.554Z,94.90
2017-08-30T22:59:30.085Z,95.50
2017-08-30T23:01:57.602Z,95.70
2017-08-30T23:04:25.150Z,95.10
2017-08-30T23:06:52.674Z,94.70
2017-08-30T23:09:20.191Z,94.90
2017-08-30T23:11:47.735Z,94.60
2017-08-30T23:14:15.249Z,94.80
2017-08-30T23:16:42.790Z,94.80
2017-08-30T23:19:10.312Z,94.90
2017-08-30T23:21:37.857Z,94.90
2017-08-30T23:24:05.379Z,95.20
2017-08-30T23:26:32.918Z,95.30
2017-08-30T23:29:00.439Z,95.50
2017-08-30T23:31:27.974Z,95.60
2017-08-30T23:33:55.495Z,95.80
2017-08-30T23:36:23.021Z,95.90
2017-08-30T23:38:50.568Z,96.00
2017-08-30T23:41:18.090Z,96.20
2017-08-30T23:43:45.640Z,96.30
2017-08-30T23:46:13.170Z,96.30
2017-08-30T23:48:40.707Z,96.30
2017-08-30T23:51:08.236Z,96.40
2017-08-30T23:53:35.783Z,96.50
2017-08-30T23:56:03.300Z,96.50
2017-08-30T23:58:30.830Z,96.80
